createdAt,value
2022-09-27T00:01:21.887Z,78.00
2022-09-27T00:03:55.512Z,78.05
2022-09-27T00:06:29.993Z,77.89
2022-09-27T00:09:00.300Z,77.81
2022-09-27T00:11:40.662Z,77.77
2022-09-27T00:14:13.302Z,77.92
2022-09-27T00:16:43.788Z,78.12
2022-09-27T00:19:15.909Z,77.92
2022-09-27T00:21:45.579Z,77.73
2022-09-27T00:24:16.997Z,77.60
2022-09-27T00:26:47.494Z,77.86
2022-09-27T00:29:18.271Z,77.82
2022-09-27T00:31:47.468Z,77.78
2022-09-27T00:34:23.283Z,77.84
2022-09-27T00:36:53.378Z,78.19
2022-09-27T00:39:22.783Z,78.40
2022-09-27T00:41:52.004Z,78.36
2022-09-27T00:44:27.383Z,78.54
2022-09-27T00:47:22.512Z,78.61
2022-09-27T00:50:24.041Z,78.33
2022-09-27T00:53:11.884Z,78.13
2022-09-27T00:56:03.759Z,78.09
2022-09-27T00:58:40.537Z,78.22
2022-09-27T01:01:14.133Z,78.31
2022-09-27T01:03:59.891Z,78.41
2022-09-27T01:06:28.501Z,78.26
2022-09-27T01:08:58.108Z,78.28
2022-09-27T01:11:50.613Z,78.27
2022-09-27T01:14:38.290Z,78.40
2022-09-27T01:17:49.200Z,78.48
2022-09-27T01:20:49.796Z,78.44
2022-09-27T01:23:29.517Z,78.52
2022-09-27T01:26:36.136Z,78.29
2022-09-27T01:29:46.552Z,78.31
2022-09-27T01:32:25.875Z,78.40
2022-09-27T01:35:08.040Z,78.38
2022-09-27T01:37:47.331Z,78.55
2022-09-27T01:40:31.436Z,78.49
2022-09-27T01:43:24.478Z,78.56
2022-09-27T01:45:59.342Z,78.39
2022-09-27T01:48:50.363Z,78.49
2022-09-27T01:51:35.902Z,78.38
2022-09-27T01:54:06.505Z,78.41
2022-09-27T01:56:58.429Z,78.45
2022-09-27T01:59:37.428Z,78.38
2022-09-27T02:02:27.494Z,78.33
2022-09-27T02:05:21.461Z,78.33
2022-09-27T02:08:05.914Z,78.45
2022-09-27T02:10:40.005Z,78.34
2022-09-27T02:13:22.724Z,78.42
2022-09-27T02:16:25.406Z,78.55
2022-09-27T02:19:03.483Z,78.63
2022-09-27T02:21:45.388Z,78.75
2022-09-27T02:24:22.033Z,78.65
2022-09-27T02:27:01.554Z,78.76
2022-09-27T02:29:51.601Z,78.77
2022-09-27T02:32:20.429Z,78.78
2022-09-27T02:34:51.156Z,78.70
2022-09-27T02:37:20.023Z,78.61
2022-09-27T02:39:49.945Z,78.87
2022-09-27T02:42:19.072Z,78.89
2022-09-27T02:44:48.058Z,78.87
2022-09-27T02:47:41.434Z,78.82
2022-09-27T02:50:50.306Z,78.81
2022-09-27T02:53:46.462Z,78.86
2022-09-27T02:56:56.515Z,79.02
2022-09-27T02:59:50.965Z,78.83
2022-09-27T03:02:52.827Z,78.85
2022-09-27T03:05:52.792Z,79.02
2022-09-27T03:08:22.394Z,78.99
2022-09-27T03:10:52.277Z,79.05
2022-09-27T03:13:21.245Z,79.04
2022-09-27T03:15:49.976Z,79.23
2022-09-27T03:18:51.768Z,79.11
2022-09-27T03:21:56.282Z,79.03
2022-09-27T03:24:25.409Z,79.15
2022-09-27T03:26:53.964Z,79.23
2022-09-27T03:29:22.859Z,79.22
2022-09-27T03:31:56.090Z,79.39
2022-09-27T03:34:47.777Z,79.48
2022-09-27T03:37:17.419Z,79.37
2022-09-27T03:39:46.377Z,79.33
2022-09-27T03:42:15.092Z,79.35
2022-09-27T03:44:48.902Z,79.23
2022-09-27T03:47:18.059Z,79.14
2022-09-27T03:49:46.796Z,79.11
2022-09-27T03:52:17.046Z,79.08
2022-09-27T03:54:46.088Z,79.24
2022-09-27T03:57:15.130Z,79.25
2022-09-27T03:59:44.894Z,79.26
2022-09-27T04:02:33.236Z,79.18
2022-09-27T04:05:29.400Z,79.25
2022-09-27T04:08:19.423Z,79.28
2022-09-27T04:10:48.516Z,79.24
2022-09-27T04:13:17.995Z,79.22
2022-09-27T04:15:53.488Z,79.28
2022-09-27T04:18:40.484Z,79.19
2022-09-27T04:21:29.055Z,79.34
2022-09-27T04:23:57.879Z,79.24
2022-09-27T04:26:26.402Z,79.33
2022-09-27T04:29:10.236Z,79.44
2022-09-27T04:31:40.840Z,79.38
2022-09-27T04:34:47.302Z,79.49
2022-09-27T04:37:17.573Z,79.49
2022-09-27T04:39:50.010Z,79.41
2022-09-27T04:42:19.459Z,79.39
2022-09-27T04:44:48.301Z,79.49
2022-09-27T04:47:19.144Z,79.45
2022-09-27T04:49:48.396Z,79.60
2022-09-27T04:52:17.106Z,79.60
2022-09-27T04:54:46.346Z,79.60
2022-09-27T04:57:15.694Z,79.59
2022-09-27T04:59:44.712Z,79.33
2022-09-27T05:02:14.140Z,79.23
2022-09-27T05:05:11.459Z,79.28
2022-09-27T05:07:43.124Z,79.29
2022-09-27T05:10:15.698Z,79.39
2022-09-27T05:12:44.783Z,79.38
2022-09-27T05:15:16.551Z,79.41
2022-09-27T05:18:15.024Z,79.40
2022-09-27T05:21:03.848Z,79.32
2022-09-27T05:23:44.695Z,79.38
2022-09-27T05:26:16.142Z,79.42
2022-09-27T05:28:47.925Z,79.46
2022-09-27T05:31:17.696Z,79.45
2022-09-27T05:33:46.791Z,79.31
2022-09-27T05:36:24.618Z,79.36
2022-09-27T05:38:54.778Z,79.41
2022-09-27T05:41:24.583Z,79.40
2022-09-27T05:43:53.516Z,79.45
2022-09-27T05:46:23.150Z,79.38
2022-09-27T05:48:51.723Z,79.42
2022-09-27T05:51:21.970Z,79.49
2022-09-27T05:53:51.118Z,79.50
2022-09-27T05:56:27.595Z,79.43
2022-09-27T05:59:21.998Z,79.47
2022-09-27T06:02:20.428Z,79.41
2022-09-27T06:05:08.415Z,79.43
2022-09-27T06:08:01.171Z,79.38
2022-09-27T06:10:42.824Z,79.47
2022-09-27T06:13:15.150Z,79.59
2022-09-27T06:15:47.006Z,79.44
2022-09-27T06:18:18.433Z,79.47
2022-09-27T06:20:51.817Z,79.45
2022-09-27T06:23:25.568Z,79.37
2022-09-27T06:25:55.797Z,79.37
2022-09-27T06:28:38.068Z,79.39
2022-09-27T06:31:12.343Z,79.33
2022-09-27T06:33:54.894Z,79.40
2022-09-27T06:36:23.909Z,79.49
2022-09-27T06:38:52.387Z,79.32
2022-09-27T06:41:44.570Z,79.39
2022-09-27T06:44:28.515Z,79.38
2022-09-27T06:47:30.736Z,79.28
2022-09-27T06:50:19.491Z,79.38
2022-09-27T06:52:49.623Z,79.41
2022-09-27T06:55:19.108Z,79.40
2022-09-27T06:58:06.782Z,79.44
2022-09-27T07:00:35.878Z,79.33
2022-09-27T07:03:35.455Z,79.32
2022-09-27T07:06:31.551Z,79.26
2022-09-27T07:09:07.423Z,79.23
2022-09-27T07:11:39.954Z,79.31
2022-09-27T07:14:11.051Z,79.30
2022-09-27T07:16:39.958Z,79.29
2022-09-27T07:19:09.423Z,79.30
2022-09-27T07:21:39.073Z,79.03
2022-09-27T07:24:08.194Z,79.16
2022-09-27T07:26:36.868Z,79.05
2022-09-27T07:29:08.568Z,79.02
2022-09-27T07:31:38.052Z,78.82
2022-09-27T07:34:07.752Z,78.92
2022-09-27T07:36:36.881Z,78.86
2022-09-27T07:39:06.032Z,78.93
2022-09-27T07:41:35.792Z,78.77
2022-09-27T07:44:05.641Z,78.80
2022-09-27T07:46:37.261Z,78.77
2022-09-27T07:49:17.655Z,78.71
2022-09-27T07:51:55.975Z,78.54
2022-09-27T07:55:18.873Z,78.54
2022-09-27T07:58:09.078Z,78.41
2022-09-27T08:00:40.204Z,78.30
2022-09-27T08:03:16.410Z,78.32
2022-09-27T08:05:47.787Z,78.41
2022-09-27T08:08:17.962Z,78.32
2022-09-27T08:10:48.328Z,78.40
2022-09-27T08:13:21.275Z,78.28
2022-09-27T08:15:53.270Z,78.21
2022-09-27T08:18:25.186Z,78.20
2022-09-27T08:20:58.184Z,78.08
2022-09-27T08:23:31.159Z,77.94
2022-09-27T08:26:28.988Z,77.77
2022-09-27T08:29:20.329Z,77.67
2022-09-27T08:31:54.797Z,77.45
2022-09-27T08:34:24.331Z,77.28
2022-09-27T08:36:56.094Z,77.21
2022-09-27T08:39:26.291Z,77.11
2022-09-27T08:42:18.104Z,76.98
2022-09-27T08:45:13.383Z,76.68
2022-09-27T08:47:49.058Z,76.69
2022-09-27T08:50:27.712Z,76.71
2022-09-27T08:53:14.422Z,76.57
2022-09-27T08:55:56.370Z,76.47
2022-09-27T08:58:34.323Z,76.37
2022-09-27T09:01:07.727Z,75.82
2022-09-27T09:03:48.562Z,75.75
2022-09-27T09:06:23.592Z,75.51
2022-09-27T09:09:00.258Z,75.53
2022-09-27T09:12:06.872Z,75.35
2022-09-27T09:14:41.518Z,75.10
2022-09-27T09:17:25.230Z,74.96
2022-09-27T09:20:36.528Z,74.76
2022-09-27T09:23:35.274Z,74.92
2022-09-27T09:26:34.233Z,74.81
2022-09-27T09:29:03.074Z,74.58
2022-09-27T09:32:02.181Z,74.24
2022-09-27T09:34:45.224Z,74.32
2022-09-27T09:37:22.331Z,74.26
2022-09-27T09:40:08.697Z,74.20
2022-09-27T09:42:53.385Z,74.13
2022-09-27T09:45:32.461Z,74.34
2022-09-27T09:48:15.634Z,74.36
2022-09-27T09:50:52.047Z,74.35
2022-09-27T09:53:43.025Z,74.27
2022-09-27T09:56:36.057Z,73.96
2022-09-27T09:59:43.452Z,73.89
2022-09-27T10:02:38.011Z,73.61
2022-09-27T10:05:17.097Z,73.63
2022-09-27T10:07:51.262Z,73.57
2022-09-27T10:10:23.036Z,73.27
2022-09-27T10:13:22.902Z,73.42
2022-09-27T10:16:27.609Z,73.26
2022-09-27T10:19:03.399Z,73.42
2022-09-27T10:21:34.449Z,73.44
2022-09-27T10:24:12.304Z,73.26
2022-09-27T10:27:02.607Z,73.02
2022-09-27T10:29:37.915Z,72.96
2022-09-27T10:32:36.885Z,72.88
2022-09-27T10:35:42.163Z,72.70
2022-09-27T10:38:35.155Z,72.66
2022-09-27T10:41:32.612Z,72.02
2022-09-27T10:44:17.518Z,72.08
2022-09-27T10:46:54.038Z,72.28
2022-09-27T10:49:42.386Z,72.36
2022-09-27T10:52:44.403Z,72.27
2022-09-27T10:55:26.219Z,72.23
2022-09-27T10:57:57.179Z,72.16
2022-09-27T11:00:33.381Z,72.14
2022-09-27T11:03:14.756Z,71.92
2022-09-27T11:05:43.928Z,71.70
2022-09-27T11:08:19.105Z,71.50
2022-09-27T11:11:13.612Z,71.63
2022-09-27T11:13:57.820Z,71.42
2022-09-27T11:16:54.540Z,71.49
2022-09-27T11:19:53.362Z,71.46
2022-09-27T11:22:41.655Z,71.40
2022-09-27T11:25:16.261Z,70.96
2022-09-27T11:28:23.312Z,70.87
2022-09-27T11:31:19.837Z,71.00
2022-09-27T11:34:16.447Z,71.04
2022-09-27T11:36:51.346Z,70.93
2022-09-27T11:39:44.722Z,70.83
2022-09-27T11:42:34.747Z,70.74
2022-09-27T11:45:37.229Z,70.45
2022-09-27T11:48:33.242Z,70.00
2022-09-27T11:51:05.945Z,70.13
2022-09-27T11:54:10.054Z,69.97
2022-09-27T11:57:13.129Z,70.06
2022-09-27T11:59:57.625Z,70.02
2022-09-27T12:02:26.247Z,69.87
2022-09-27T12:05:15.780Z,69.88
2022-09-27T12:08:13.706Z,69.70
2022-09-27T12:10:49.725Z,69.81
2022-09-27T12:13:41.965Z,69.75
2022-09-27T12:16:15.893Z,69.71
2022-09-27T12:18:51.272Z,69.60
2022-09-27T12:21:33.732Z,69.41
2022-09-27T12:24:04.298Z,69.66
2022-09-27T12:26:54.518Z,69.69
2022-09-27T12:29:32.680Z,69.58
2022-09-27T12:32:07.782Z,69.47
2022-09-27T12:35:00.182Z,69.53
2022-09-27T12:37:48.527Z,69.46
2022-09-27T12:40:50.089Z,69.53
2022-09-27T12:43:28.221Z,69.43
2022-09-27T12:46:32.823Z,69.54
2022-09-27T12:49:14.070Z,69.50
2022-09-27T12:52:12.325Z,69.54
2022-09-27T12:54:59.187Z,69.47
2022-09-27T12:57:51.412Z,69.48
2022-09-27T13:00:38.945Z,69.40
2022-09-27T13:03:16.206Z,69.38
2022-09-27T13:06:21.036Z,69.37
2022-09-27T13:09:02.302Z,69.40
2022-09-27T13:12:02.904Z,69.35
2022-09-27T13:14:36.221Z,69.12
2022-09-27T13:17:05.434Z,69.15
2022-09-27T13:19:43.341Z,69.24
2022-09-27T13:22:39.985Z,69.05
2022-09-27T13:26:01.011Z,69.13
2022-09-27T13:28:50.243Z,69.22
2022-09-27T13:31:55.515Z,69.17
2022-09-27T13:34:48.547Z,69.05
2022-09-27T13:37:54.486Z,68.97
2022-09-27T13:40:38.142Z,68.92
2022-09-27T13:43:28.545Z,68.78
2022-09-27T13:46:10.170Z,68.71
2022-09-27T13:49:17.107Z,68.68
2022-09-27T13:52:37.124Z,68.59
2022-09-27T13:55:41.937Z,68.60
2022-09-27T13:58:47.839Z,68.55
2022-09-27T14:01:47.053Z,68.31
2022-09-27T14:04:37.876Z,68.52
2022-09-27T14:07:13.497Z,68.43
2022-09-27T14:09:48.897Z,68.34
2022-09-27T14:12:29.732Z,68.15
2022-09-27T14:15:03.588Z,68.19
2022-09-27T14:17:33.444Z,68.34
2022-09-27T14:20:07.678Z,68.53
2022-09-27T14:22:39.062Z,68.63
2022-09-27T14:25:19.007Z,68.70
2022-09-27T14:27:51.206Z,68.70
2022-09-27T14:30:47.473Z,68.76
2022-09-27T14:33:35.246Z,69.09
2022-09-27T14:36:45.119Z,69.22
2022-09-27T14:39:26.135Z,69.32
2022-09-27T14:41:57.391Z,69.36
2022-09-27T14:44:28.385Z,69.37
2022-09-27T14:47:23.363Z,69.51
2022-09-27T14:49:55.404Z,69.30
2022-09-27T14:52:30.835Z,69.20
2022-09-27T14:55:02.935Z,69.22
2022-09-27T14:57:34.605Z,69.32
2022-09-27T15:00:45.724Z,69.23
2022-09-27T15:03:37.520Z,69.32
2022-09-27T15:26:52.698Z,69.53
2022-09-27T15:29:26.985Z,69.75
2022-09-27T15:32:01.509Z,69.74
2022-09-27T15:34:33.295Z,69.79
2022-09-27T15:37:04.118Z,69.80
2022-09-27T15:39:38.617Z,69.78
2022-09-27T15:42:11.232Z,69.78
2022-09-27T15:44:43.420Z,69.95
2022-09-27T15:47:37.838Z,70.01
2022-09-27T15:50:17.004Z,69.91
2022-09-27T15:52:48.646Z,69.83
2022-09-27T15:55:25.075Z,69.77
2022-09-27T15:58:06.699Z,69.94
2022-09-27T16:00:36.318Z,70.06
2022-09-27T16:03:05.281Z,70.09
2022-09-27T16:05:34.435Z,69.95
2022-09-27T16:08:03.576Z,69.99
2022-09-27T16:11:00.402Z,70.06
2022-09-27T16:13:32.957Z,70.13
2022-09-27T16:16:03.915Z,70.17
2022-09-27T16:18:33.915Z,69.93
2022-09-27T16:21:02.825Z,69.92
2022-09-27T16:23:31.897Z,69.99
2022-09-27T16:26:00.507Z,69.98
2022-09-27T16:28:29.427Z,69.85
2022-09-27T16:31:04.570Z,70.01
2022-09-27T16:33:34.088Z,70.11
2022-09-27T16:36:08.252Z,70.12
2022-09-27T16:38:36.946Z,70.10
2022-09-27T16:41:05.714Z,70.16
2022-09-27T16:43:34.987Z,70.24
2022-09-27T16:46:12.044Z,70.31
2022-09-27T16:48:41.886Z,70.36
2022-09-27T16:51:40.397Z,70.32
2022-09-27T16:54:09.242Z,70.38
2022-09-27T16:56:38.823Z,70.38
2022-09-27T16:59:07.685Z,70.36
2022-09-27T17:01:36.571Z,70.29
2022-09-27T17:04:33.576Z,70.52
2022-09-27T17:07:28.441Z,70.48
2022-09-27T17:10:23.006Z,70.54
2022-09-27T17:13:16.472Z,70.53
2022-09-27T17:16:12.591Z,70.69
2022-09-27T17:19:05.239Z,70.19
2022-09-27T17:22:04.154Z,70.00
2022-09-27T17:24:51.076Z,70.19
2022-09-27T17:27:37.548Z,70.33
2022-09-27T17:30:30.111Z,70.31
2022-09-27T17:33:28.426Z,70.31
2022-09-27T17:36:15.331Z,70.55
2022-09-27T17:38:54.142Z,70.64
2022-09-27T17:41:24.915Z,70.88
2022-09-27T17:43:56.832Z,70.82
2022-09-27T17:46:31.570Z,70.77
2022-09-27T17:49:19.435Z,70.66
2022-09-27T17:51:50.661Z,70.87
2022-09-27T17:54:23.193Z,70.97
2022-09-27T17:56:52.157Z,70.69
2022-09-27T17:59:21.225Z,71.13
2022-09-27T18:01:50.087Z,71.08
2022-09-27T18:04:20.062Z,71.12
2022-09-27T18:06:48.869Z,70.99
2022-09-27T18:09:19.108Z,71.14
2022-09-27T18:11:48.036Z,71.19
2022-09-27T18:14:18.232Z,71.44
2022-09-27T18:16:47.449Z,71.38
2022-09-27T18:19:17.523Z,71.49
2022-09-27T18:21:46.200Z,71.34
2022-09-27T18:24:15.149Z,71.63
2022-09-27T18:26:44.728Z,71.56
2022-09-27T18:29:16.354Z,71.75
2022-09-27T18:31:48.734Z,71.61
2022-09-27T18:34:18.709Z,71.52
2022-09-27T18:36:47.803Z,71.50
2022-09-27T18:39:19.742Z,71.44
2022-09-27T18:41:49.962Z,71.52
2022-09-27T18:44:19.395Z,71.48
2022-09-27T18:46:48.666Z,71.49
2022-09-27T18:49:21.093Z,71.54
2022-09-27T18:51:52.651Z,71.57
2022-09-27T18:54:23.422Z,71.65
2022-09-27T18:56:52.815Z,71.63
2022-09-27T18:59:23.904Z,71.57
2022-09-27T19:01:52.846Z,71.57
2022-09-27T19:04:25.337Z,71.47
2022-09-27T19:06:57.156Z,71.53
2022-09-27T19:09:27.724Z,71.35
2022-09-27T19:11:56.856Z,71.55
2022-09-27T19:14:25.798Z,71.63
2022-09-27T19:16:54.814Z,71.55
2022-09-27T19:19:24.604Z,71.54
2022-09-27T19:21:53.104Z,71.54
2022-09-27T19:24:22.082Z,71.69
2022-09-27T19:26:54.053Z,71.73
2022-09-27T19:29:23.221Z,71.86
2022-09-27T19:31:52.396Z,71.96
2022-09-27T19:34:20.985Z,71.95
2022-09-27T19:36:49.876Z,72.07
2022-09-27T19:39:21.762Z,72.10
2022-09-27T19:41:50.898Z,72.06
2022-09-27T19:44:19.701Z,71.97
2022-09-27T19:46:49.042Z,72.03
2022-09-27T19:49:19.470Z,72.12
2022-09-27T19:51:48.086Z,72.12
2022-09-27T19:54:17.176Z,72.19
2022-09-27T19:56:46.008Z,72.12
2022-09-27T19:59:14.911Z,72.09
2022-09-27T20:01:44.344Z,72.12
2022-09-27T20:04:13.560Z,72.11
2022-09-27T20:06:42.296Z,72.32
2022-09-27T20:09:11.482Z,72.47
2022-09-27T20:11:40.592Z,72.44
2022-09-27T20:14:09.608Z,72.40
2022-09-27T20:16:41.413Z,72.34
2022-09-27T20:19:12.375Z,72.51
2022-09-27T20:21:41.738Z,72.48
2022-09-27T20:24:10.227Z,72.32
2022-09-27T20:26:39.364Z,72.39
2022-09-27T20:29:11.364Z,72.45
2022-09-27T20:32:03.256Z,72.40
2022-09-27T20:34:32.917Z,72.54
2022-09-27T20:37:01.942Z,72.42
2022-09-27T20:39:30.467Z,72.37
2022-09-27T20:41:59.618Z,72.37
2022-09-27T20:44:28.513Z,72.43
2022-09-27T20:46:57.098Z,72.43
2022-09-27T20:49:26.399Z,72.43
2022-09-27T20:51:55.398Z,72.62
2022-09-27T20:54:23.897Z,72.60
2022-09-27T20:56:53.007Z,72.48
2022-09-27T20:59:24.121Z,72.53
2022-09-27T21:01:53.683Z,72.79
2022-09-27T21:04:23.873Z,72.82
2022-09-27T21:06:54.352Z,72.92
2022-09-27T21:09:22.905Z,73.02
2022-09-27T21:11:54.278Z,73.10
2022-09-27T21:14:23.445Z,72.99
2022-09-27T21:16:52.109Z,72.88
2022-09-27T21:19:21.090Z,73.01
2022-09-27T21:21:52.241Z,73.05
2022-09-27T21:24:20.892Z,73.02
2022-09-27T21:26:49.620Z,72.87
2022-09-27T21:29:18.729Z,72.94
2022-09-27T21:31:47.390Z,73.03
2022-09-27T21:34:16.077Z,72.87
2022-09-27T21:36:45.409Z,72.96
2022-09-27T21:39:15.872Z,73.02
2022-09-27T21:41:44.668Z,73.00
2022-09-27T21:44:13.689Z,73.11
2022-09-27T21:46:43.827Z,73.29
2022-09-27T21:49:12.775Z,73.09
2022-09-27T21:51:42.899Z,73.05
2022-09-27T21:54:15.081Z,73.14
2022-09-27T21:56:45.346Z,73.25
2022-09-27T21:59:15.719Z,73.37
2022-09-27T22:01:46.380Z,73.38
2022-09-27T22:04:16.873Z,73.43
2022-09-27T22:06:45.817Z,73.45
2022-09-27T22:09:17.034Z,73.44
2022-09-27T22:11:47.980Z,73.41
2022-09-27T22:14:19.796Z,73.26
2022-09-27T22:16:49.353Z,73.38
2022-09-27T22:19:18.435Z,73.23
2022-09-27T22:21:47.634Z,73.28
2022-09-27T22:24:18.488Z,73.35
2022-09-27T22:26:53.192Z,73.33
2022-09-27T22:29:22.156Z,73.44
2022-09-27T22:31:51.057Z,73.55
2022-09-27T22:34:29.447Z,73.61
2022-09-27T22:37:01.091Z,73.56
2022-09-27T22:39:30.284Z,73.43
2022-09-27T22:41:59.126Z,73.43
2022-09-27T22:44:27.707Z,73.42
2022-09-27T22:46:57.703Z,73.57
2022-09-27T22:49:26.689Z,73.66
2022-09-27T22:51:55.186Z,73.56
2022-09-27T22:54:23.922Z,73.42
2022-09-27T22:56:57.613Z,73.66
2022-09-27T22:59:28.256Z,73.87
2022-09-27T23:01:57.598Z,73.79
2022-09-27T23:04:26.599Z,73.79
2022-09-27T23:06:55.550Z,73.72
2022-09-27T23:09:26.049Z,73.80
2022-09-27T23:11:56.010Z,73.85
2022-09-27T23:14:26.468Z,73.93
2022-09-27T23:16:55.681Z,73.91
2022-09-27T23:19:26.689Z,73.74
2022-09-27T23:21:55.566Z,73.89
2022-09-27T23:24:24.490Z,73.71
2022-09-27T23:27:12.720Z,73.70
2022-09-27T23:29:41.970Z,73.95
2022-09-27T23:32:10.772Z,74.11
2022-09-27T23:34:39.516Z,74.25
2022-09-27T23:37:08.366Z,74.04
2022-09-27T23:39:37.242Z,74.00
2022-09-27T23:42:07.298Z,74.08
2022-09-27T23:44:36.237Z,74.23
2022-09-27T23:47:04.891Z,73.97
2022-09-27T23:49:34.308Z,74.05
2022-09-27T23:52:04.446Z,74.23
2022-09-27T23:54:33.210Z,74.26
2022-09-27T23:57:02.835Z,74.42
2022-09-27T23:59:31.824Z,74.46
